createdAt,value
2022-12-31T00:01:04.302Z,0.59
2022-12-31T00:02:26.213Z,0.57
2022-12-31T00:03:48.209Z,0.57
2022-12-31T00:05:10.361Z,0.58
2022-12-31T00:06:36.423Z,0.61
2022-12-31T00:07:59.174Z,0.63
2022-12-31T00:09:21.258Z,0.66
2022-12-31T00:10:43.061Z,0.67
2022-12-31T00:12:05.218Z,0.68
2022-12-31T00:13:26.772Z,0.69
2022-12-31T00:14:48.949Z,0.72
2022-12-31T00:16:13.602Z,0.74
2022-12-31T00:17:35.188Z,0.72
2022-12-31T00:19:01.930Z,0.73
2022-12-31T00:20:23.651Z,0.73
2022-12-31T00:21:45.415Z,0.74
2022-12-31T00:23:07.994Z,0.75
2022-12-31T00:24:31.166Z,0.75
2022-12-31T00:25:53.270Z,0.75
2022-12-31T00:27:15.100Z,0.76
2022-12-31T00:28:37.889Z,0.77
2022-12-31T00:30:04.217Z,0.78
2022-12-31T00:31:31.830Z,0.76
2022-12-31T00:32:53.857Z,0.78
2022-12-31T00:34:15.400Z,0.78
2022-12-31T00:35:36.980Z,0.80
2022-12-31T00:37:01.938Z,0.81
2022-12-31T00:38:23.686Z,0.82
2022-12-31T00:39:45.406Z,0.81
2022-12-31T00:41:08.886Z,0.81
2022-12-31T00:42:30.954Z,0.83
2022-12-31T00:43:53.081Z,0.84
2022-12-31T00:45:14.789Z,0.82
2022-12-31T00:47:57.214Z,0.78
2022-12-31T00:49:19.085Z,0.76
2022-12-31T00:50:40.744Z,0.76
2022-12-31T00:52:02.684Z,0.75
2022-12-31T00:53:25.446Z,0.78
2022-12-31T00:54:47.167Z,0.79
2022-12-31T00:56:14.640Z,0.78
2022-12-31T00:57:36.396Z,0.74
2022-12-31T00:58:59.506Z,0.70
2022-12-31T01:00:21.173Z,0.68
2022-12-31T01:01:43.685Z,0.68
2022-12-31T01:03:06.114Z,0.70
2022-12-31T01:04:27.998Z,0.70
2022-12-31T01:05:50.457Z,0.71
2022-12-31T01:07:12.463Z,0.72
2022-12-31T01:08:34.616Z,0.71
2022-12-31T01:09:56.390Z,0.68
2022-12-31T01:11:19.193Z,0.69
2022-12-31T01:12:41.199Z,0.68
2022-12-31T01:14:06.094Z,0.60
2022-12-31T01:15:28.101Z,0.52
2022-12-31T01:16:55.288Z,0.57
2022-12-31T01:18:17.167Z,0.57
2022-12-31T01:19:39.113Z,0.60
2022-12-31T01:21:04.070Z,0.60
2022-12-31T01:22:25.884Z,0.62
2022-12-31T01:23:48.401Z,0.62
2022-12-31T01:25:10.380Z,0.61
2022-12-31T01:26:32.533Z,0.61
2022-12-31T01:27:54.707Z,0.60
2022-12-31T01:29:17.036Z,0.59
2022-12-31T01:30:42.765Z,0.60
2022-12-31T01:32:05.384Z,0.62
2022-12-31T01:33:27.336Z,0.60
2022-12-31T01:34:49.141Z,0.61
2022-12-31T01:36:14.229Z,0.59
2022-12-31T01:37:35.943Z,0.59
2022-12-31T01:38:59.936Z,0.56
2022-12-31T01:40:21.502Z,0.56
2022-12-31T01:41:47.176Z,0.55
2022-12-31T01:43:20.219Z,0.55
2022-12-31T01:44:47.445Z,0.51
2022-12-31T01:46:11.593Z,0.51
2022-12-31T01:47:50.028Z,0.51
2022-12-31T01:49:17.513Z,0.51
2022-12-31T01:50:41.018Z,0.51
2022-12-31T01:52:27.325Z,0.52
2022-12-31T01:53:50.182Z,0.52
2022-12-31T01:55:30.463Z,0.51
2022-12-31T01:56:55.053Z,0.52
2022-12-31T01:58:31.431Z,0.52
2022-12-31T01:59:55.608Z,0.51
2022-12-31T02:01:28.116Z,0.52
2022-12-31T02:02:50.034Z,0.49
2022-12-31T02:04:13.733Z,0.47
2022-12-31T02:05:53.703Z,0.47
2022-12-31T02:07:15.564Z,0.44
2022-12-31T02:08:41.961Z,0.42
2022-12-31T02:10:04.325Z,0.41
2022-12-31T02:11:33.009Z,0.40
2022-12-31T02:12:55.431Z,0.36
2022-12-31T02:14:29.513Z,0.28
2022-12-31T02:16:15.998Z,0.12
2022-12-31T02:18:01.680Z,0.11
2022-12-31T02:19:32.716Z,0.02
2022-12-31T02:21:03.553Z,-0.03
2022-12-31T02:22:25.209Z,-0.04
2022-12-31T02:24:02.356Z,0.01
2022-12-31T02:26:01.296Z,0.08
2022-12-31T02:27:34.847Z,0.09
2022-12-31T02:29:10.860Z,0.11
2022-12-31T02:30:34.672Z,0.06
2022-12-31T02:32:22.580Z,0.05
2022-12-31T02:33:50.509Z,0.06
2022-12-31T02:35:14.723Z,0.07
2022-12-31T02:36:42.995Z,0.11
2022-12-31T02:38:30.131Z,0.11
2022-12-31T02:39:52.557Z,0.15
2022-12-31T02:41:36.207Z,0.16
2022-12-31T02:42:57.834Z,0.16
2022-12-31T02:44:33.178Z,0.18
2022-12-31T02:46:29.940Z,0.18
2022-12-31T02:48:24.873Z,0.21
2022-12-31T02:50:07.647Z,0.20
2022-12-31T02:51:47.791Z,0.20
2022-12-31T02:53:26.258Z,0.18
2022-12-31T02:55:10.183Z,0.21
2022-12-31T02:56:39.853Z,0.22
2022-12-31T02:58:07.814Z,0.23
2022-12-31T03:00:06.428Z,0.22
2022-12-31T03:01:56.215Z,0.23
2022-12-31T03:03:19.909Z,0.23
2022-12-31T03:04:46.105Z,0.20
2022-12-31T03:06:09.787Z,0.22
2022-12-31T03:07:33.085Z,0.20
2022-12-31T03:09:13.144Z,0.20
2022-12-31T03:10:35.612Z,0.21
2022-12-31T03:12:15.859Z,0.22
2022-12-31T03:13:37.360Z,0.23
2022-12-31T03:15:00.153Z,0.24
2022-12-31T03:16:21.971Z,0.20
2022-12-31T03:17:43.735Z,0.20
2022-12-31T03:19:25.820Z,0.17
2022-12-31T03:21:10.138Z,0.21
2022-12-31T03:22:32.815Z,0.23
2022-12-31T03:24:13.170Z,0.24
2022-12-31T03:25:35.756Z,0.24
2022-12-31T03:26:57.543Z,0.23
2022-12-31T03:28:21.977Z,0.25
2022-12-31T03:29:43.779Z,0.29
2022-12-31T03:31:06.585Z,0.31
2022-12-31T03:32:28.224Z,0.31
2022-12-31T03:33:50.248Z,0.33
2022-12-31T03:35:14.073Z,0.32
2022-12-31T03:36:36.053Z,0.30
2022-12-31T03:37:57.969Z,0.27
2022-12-31T03:39:19.762Z,0.30
2022-12-31T03:40:45.095Z,0.22
2022-12-31T03:42:06.891Z,0.19
2022-12-31T03:43:28.851Z,0.15
2022-12-31T03:44:50.524Z,0.16
2022-12-31T03:46:12.319Z,0.18
2022-12-31T03:47:34.907Z,0.21
2022-12-31T03:48:56.380Z,0.21
2022-12-31T03:50:19.385Z,0.20
2022-12-31T03:51:40.904Z,0.17
2022-12-31T03:53:02.918Z,0.18
2022-12-31T03:54:24.667Z,0.20
2022-12-31T03:55:54.084Z,0.22
2022-12-31T03:57:15.917Z,0.24
2022-12-31T03:58:37.930Z,0.25
2022-12-31T03:59:59.825Z,0.26
2022-12-31T04:01:24.332Z,0.26
2022-12-31T04:02:47.560Z,0.27
2022-12-31T04:04:09.541Z,0.29
2022-12-31T04:05:32.425Z,0.31
2022-12-31T04:06:54.346Z,0.32
2022-12-31T04:08:16.133Z,0.35
2022-12-31T04:09:37.921Z,0.35
2022-12-31T04:10:59.976Z,0.34
2022-12-31T04:12:22.004Z,0.35
2022-12-31T04:13:44.093Z,0.36
2022-12-31T04:15:07.642Z,0.36
2022-12-31T04:16:29.698Z,0.33
2022-12-31T04:17:51.725Z,0.32
2022-12-31T04:19:14.649Z,0.32
2022-12-31T04:20:36.585Z,0.33
2022-12-31T04:21:59.103Z,0.27
2022-12-31T04:23:20.815Z,0.19
2022-12-31T04:24:43.649Z,0.22
2022-12-31T04:26:05.471Z,0.24
2022-12-31T04:27:27.413Z,0.23
2022-12-31T04:28:49.384Z,0.24
2022-12-31T04:30:13.124Z,0.23
2022-12-31T04:31:35.187Z,0.23
2022-12-31T04:32:57.285Z,0.23
2022-12-31T04:34:19.166Z,0.22
2022-12-31T04:35:40.988Z,0.21
2022-12-31T04:37:03.534Z,0.20
2022-12-31T04:38:25.370Z,0.20
2022-12-31T04:39:47.118Z,0.20
2022-12-31T04:41:18.480Z,0.19
2022-12-31T04:42:40.105Z,0.19
2022-12-31T04:44:01.901Z,0.15
2022-12-31T04:45:23.909Z,0.15
2022-12-31T04:46:45.787Z,0.17
2022-12-31T04:48:07.496Z,0.15
2022-12-31T04:49:29.449Z,0.14
2022-12-31T04:50:51.586Z,0.14
2022-12-31T04:52:13.329Z,0.13
2022-12-31T04:53:35.138Z,0.14
2022-12-31T04:54:56.782Z,0.13
2022-12-31T04:56:20.530Z,0.12
2022-12-31T04:57:42.417Z,0.13
2022-12-31T04:59:05.576Z,0.12
2022-12-31T05:00:27.294Z,0.08
2022-12-31T05:01:49.507Z,0.10
2022-12-31T05:03:12.205Z,0.06
2022-12-31T05:04:34.184Z,-0.22
2022-12-31T05:06:08.204Z,-0.32
2022-12-31T05:07:30.199Z,-0.64
2022-12-31T05:08:52.281Z,-0.79
2022-12-31T05:10:14.052Z,-0.73
2022-12-31T05:11:35.879Z,-0.94
2022-12-31T05:12:57.658Z,-1.01
2022-12-31T05:14:20.099Z,-1.08
2022-12-31T05:15:42.675Z,-1.10
2022-12-31T05:17:04.314Z,-1.12
2022-12-31T05:18:26.112Z,-1.09
2022-12-31T05:19:47.917Z,-1.03
2022-12-31T05:21:15.764Z,-0.98
2022-12-31T05:22:37.839Z,-0.94
2022-12-31T05:23:59.677Z,-0.90
2022-12-31T05:25:21.469Z,-0.85
2022-12-31T05:26:43.429Z,-0.82
2022-12-31T05:28:05.445Z,-0.78
2022-12-31T05:29:27.370Z,-0.74
2022-12-31T05:30:51.367Z,-0.69
2022-12-31T05:32:13.107Z,-0.65
2022-12-31T05:33:34.917Z,-0.62
2022-12-31T05:34:57.928Z,-0.63
2022-12-31T05:36:19.732Z,-0.63
2022-12-31T05:37:41.998Z,-0.60
2022-12-31T05:39:04.101Z,-0.56
2022-12-31T05:40:26.294Z,-0.54
2022-12-31T05:41:48.341Z,-0.51
2022-12-31T05:43:10.097Z,-0.47
2022-12-31T05:44:31.660Z,-0.49
2022-12-31T05:45:54.159Z,-0.53
2022-12-31T05:47:17.072Z,-0.54
2022-12-31T05:48:39.179Z,-0.52
2022-12-31T05:50:00.685Z,-0.49
2022-12-31T05:51:22.356Z,-0.62
2022-12-31T05:52:47.708Z,-0.68
2022-12-31T05:54:09.949Z,-0.64
2022-12-31T05:55:31.728Z,-0.62
2022-12-31T05:56:53.570Z,-0.61
2022-12-31T05:58:16.872Z,-0.59
2022-12-31T05:59:38.456Z,-0.56
2022-12-31T06:01:00.448Z,-0.55
2022-12-31T06:02:23.010Z,-0.53
2022-12-31T06:03:44.919Z,-0.50
2022-12-31T06:05:07.398Z,-0.57
2022-12-31T06:06:29.043Z,-0.56
2022-12-31T06:07:50.680Z,-0.54
2022-12-31T06:09:12.672Z,-0.52
2022-12-31T06:10:34.637Z,-0.50
2022-12-31T06:11:56.420Z,-0.52
2022-12-31T06:13:18.290Z,-0.51
2022-12-31T06:14:45.436Z,-0.49
2022-12-31T06:16:09.394Z,-0.44
2022-12-31T06:17:32.530Z,-0.39
2022-12-31T06:18:54.936Z,-0.38
2022-12-31T06:20:17.846Z,-0.33
2022-12-31T06:21:39.613Z,-0.31
2022-12-31T06:23:02.576Z,-0.28
2022-12-31T06:24:24.654Z,-0.25
2022-12-31T06:25:46.152Z,-0.23
2022-12-31T06:27:08.138Z,-0.20
2022-12-31T06:28:29.933Z,-0.17
2022-12-31T06:29:51.902Z,-0.15
2022-12-31T06:31:15.100Z,-0.11
2022-12-31T06:32:36.898Z,-0.08
2022-12-31T06:33:59.162Z,-0.07
2022-12-31T06:35:21.060Z,-0.07
2022-12-31T06:36:42.548Z,-0.03
2022-12-31T06:38:04.280Z,0.01
2022-12-31T06:39:26.412Z,0.01
2022-12-31T06:40:48.222Z,0.05
2022-12-31T06:42:10.009Z,0.07
2022-12-31T06:43:34.138Z,0.12
2022-12-31T06:44:56.157Z,0.16
2022-12-31T06:46:18.853Z,0.23
2022-12-31T06:47:40.988Z,0.29
2022-12-31T06:49:03.131Z,0.35
2022-12-31T06:50:25.123Z,0.42
2022-12-31T06:51:48.796Z,0.51
2022-12-31T06:53:10.380Z,0.61
2022-12-31T06:54:32.509Z,0.71
2022-12-31T06:55:54.937Z,0.80
2022-12-31T06:57:17.181Z,0.87
2022-12-31T06:58:39.438Z,0.97
2022-12-31T07:00:01.613Z,1.08
2022-12-31T07:02:03.807Z,1.17
2022-12-31T07:03:40.949Z,1.29
2022-12-31T07:05:12.487Z,1.39
2022-12-31T07:06:38.153Z,1.49
2022-12-31T07:08:15.794Z,1.58
2022-12-31T07:09:55.424Z,1.63
2022-12-31T07:11:30.343Z,1.61
2022-12-31T07:13:00.886Z,1.50
2022-12-31T07:14:28.372Z,1.60
2022-12-31T07:16:31.684Z,1.62
2022-12-31T07:18:17.690Z,1.42
2022-12-31T07:19:45.268Z,1.44
2022-12-31T07:21:16.450Z,1.49
2022-12-31T07:22:38.844Z,1.72
2022-12-31T07:24:01.195Z,1.86
2022-12-31T07:25:23.623Z,1.98
2022-12-31T07:27:19.364Z,2.15
2022-12-31T07:29:07.898Z,2.33
2022-12-31T07:30:40.719Z,2.53
2022-12-31T07:32:24.376Z,2.59
2022-12-31T07:33:58.152Z,2.72
2022-12-31T07:35:38.066Z,2.90
2022-12-31T07:37:23.351Z,2.87
2022-12-31T07:39:08.707Z,3.05
2022-12-31T07:40:35.289Z,3.21
2022-12-31T07:42:33.079Z,3.53
2022-12-31T07:44:15.206Z,3.61
2022-12-31T07:45:58.248Z,3.81
2022-12-31T07:47:24.365Z,4.05
2022-12-31T07:48:46.733Z,3.99
2022-12-31T07:50:16.174Z,4.18
2022-12-31T07:51:38.169Z,4.08
2022-12-31T07:53:00.360Z,4.43
2022-12-31T07:54:22.522Z,4.64
2022-12-31T07:55:44.607Z,4.86
2022-12-31T07:57:06.532Z,5.12
2022-12-31T07:58:40.614Z,5.12
2022-12-31T08:00:14.185Z,5.45
2022-12-31T08:01:47.176Z,5.55
2022-12-31T08:03:30.677Z,5.66
2022-12-31T08:05:16.627Z,6.07
2022-12-31T08:06:50.775Z,6.44
2022-12-31T08:08:12.418Z,6.87
2022-12-31T08:09:42.919Z,7.20
2022-12-31T08:11:18.570Z,7.50
2022-12-31T08:12:41.317Z,7.83
2022-12-31T08:14:03.916Z,7.72
2022-12-31T08:15:30.364Z,7.82
2022-12-31T08:16:53.053Z,8.08
2022-12-31T08:18:14.720Z,8.48
2022-12-31T08:19:36.494Z,8.70
2022-12-31T08:21:17.932Z,8.86
2022-12-31T08:23:07.953Z,9.13
2022-12-31T08:24:35.898Z,9.33
2022-12-31T08:26:33.204Z,9.52
2022-12-31T08:28:48.571Z,10.23
2022-12-31T08:30:12.990Z,10.71
2022-12-31T08:32:03.529Z,10.97
2022-12-31T08:34:05.773Z,11.32
2022-12-31T08:35:56.376Z,11.82
2022-12-31T08:37:40.956Z,12.28
2022-12-31T08:39:28.487Z,12.56
2022-12-31T08:41:08.750Z,12.97
2022-12-31T08:42:49.027Z,13.39
2022-12-31T08:44:39.197Z,13.51
2022-12-31T08:46:01.703Z,13.86
2022-12-31T08:47:38.716Z,13.81
2022-12-31T08:49:00.998Z,13.79
2022-12-31T08:50:23.397Z,14.20
2022-12-31T08:51:45.565Z,14.75
2022-12-31T08:53:07.772Z,14.95
2022-12-31T08:54:30.124Z,15.40
2022-12-31T08:56:05.135Z,15.50
2022-12-31T08:57:42.291Z,16.02
2022-12-31T08:59:20.768Z,15.98
2022-12-31T09:00:42.798Z,16.25
2022-12-31T09:02:30.471Z,16.22
2022-12-31T09:04:02.831Z,16.20
2022-12-31T09:05:36.800Z,16.29
2022-12-31T09:07:03.959Z,16.33
2022-12-31T09:08:51.238Z,16.51
2022-12-31T09:10:33.041Z,16.41
2022-12-31T09:12:16.261Z,16.59
2022-12-31T09:14:10.152Z,15.37
2022-12-31T09:15:41.527Z,15.01
2022-12-31T09:17:21.637Z,13.94
2022-12-31T09:18:43.751Z,13.37
2022-12-31T09:20:07.007Z,12.51
2022-12-31T09:21:28.827Z,12.20
2022-12-31T09:22:51.788Z,11.76
2022-12-31T09:24:15.336Z,11.25
2022-12-31T09:26:07.881Z,10.63
2022-12-31T09:27:33.336Z,9.87
2022-12-31T09:29:07.027Z,9.71
2022-12-31T09:30:32.423Z,9.29
2022-12-31T09:32:08.154Z,8.95
2022-12-31T09:33:45.269Z,8.66
2022-12-31T09:35:37.187Z,8.40
2022-12-31T09:37:05.433Z,8.26
2022-12-31T09:38:45.192Z,8.11
2022-12-31T09:40:28.375Z,8.00
2022-12-31T09:42:08.333Z,7.84
2022-12-31T09:43:36.227Z,7.64
2022-12-31T09:45:35.584Z,7.57
2022-12-31T09:47:28.317Z,7.42
2022-12-31T09:49:07.315Z,7.30
2022-12-31T09:50:56.550Z,7.19
2022-12-31T09:52:24.245Z,7.02
2022-12-31T09:54:17.720Z,6.95
2022-12-31T09:55:51.499Z,6.81
2022-12-31T09:57:25.475Z,6.58
2022-12-31T09:59:11.061Z,6.48
2022-12-31T10:01:11.079Z,6.43
2022-12-31T10:02:43.677Z,6.32
2022-12-31T10:04:14.607Z,6.22
2022-12-31T10:05:55.227Z,6.09
2022-12-31T10:07:58.508Z,6.03
2022-12-31T10:09:55.807Z,5.99
2022-12-31T10:11:26.810Z,5.92
2022-12-31T10:12:57.356Z,5.81
2022-12-31T10:14:34.177Z,5.75
2022-12-31T10:16:07.788Z,5.73
2022-12-31T10:18:08.554Z,5.68
2022-12-31T10:19:42.007Z,5.58
2022-12-31T10:21:24.917Z,5.49
2022-12-31T10:23:20.327Z,5.49
2022-12-31T10:25:06.352Z,5.46
2022-12-31T10:26:53.215Z,5.43
2022-12-31T10:28:38.033Z,5.37
2022-12-31T10:30:03.777Z,5.35
2022-12-31T10:31:53.878Z,5.33
2022-12-31T10:33:40.999Z,5.31
2022-12-31T10:35:15.355Z,5.28
2022-12-31T10:36:55.747Z,5.27
2022-12-31T10:38:47.821Z,5.26
2022-12-31T10:40:12.375Z,5.21
2022-12-31T10:41:56.705Z,5.20
2022-12-31T10:43:21.471Z,5.17
2022-12-31T10:45:06.192Z,5.17
2022-12-31T10:47:02.953Z,5.17
2022-12-31T10:48:33.400Z,5.16
2022-12-31T10:49:55.114Z,5.17
2022-12-31T10:51:23.594Z,5.15
2022-12-31T10:53:10.136Z,5.15
2022-12-31T10:54:31.740Z,5.16
2022-12-31T10:56:31.242Z,5.17
2022-12-31T10:58:07.925Z,5.17
2022-12-31T10:59:44.524Z,5.15
2022-12-31T11:01:24.429Z,5.14
2022-12-31T11:03:08.053Z,5.15
2022-12-31T11:04:50.864Z,5.14
2022-12-31T11:06:18.173Z,5.14
2022-12-31T11:07:55.705Z,5.14
2022-12-31T11:09:36.085Z,5.15
2022-12-31T11:11:23.441Z,5.13
2022-12-31T11:13:06.857Z,5.11
2022-12-31T11:14:56.698Z,5.08
2022-12-31T11:16:24.571Z,5.13
2022-12-31T11:18:11.466Z,5.15
2022-12-31T11:19:53.506Z,5.19
2022-12-31T11:21:55.642Z,5.24
2022-12-31T11:23:37.111Z,5.27
2022-12-31T11:25:10.958Z,5.31
2022-12-31T11:26:51.220Z,5.34
2022-12-31T11:28:25.027Z,5.37
2022-12-31T11:29:49.985Z,5.37
2022-12-31T11:31:30.671Z,5.35
2022-12-31T11:32:58.479Z,5.39
2022-12-31T11:34:26.631Z,5.41
2022-12-31T11:36:08.339Z,5.53
2022-12-31T11:37:40.585Z,5.53
2022-12-31T11:39:39.967Z,5.72
2022-12-31T11:41:11.704Z,5.83
2022-12-31T11:43:08.703Z,6.00
2022-12-31T11:44:58.228Z,6.13
2022-12-31T11:46:52.631Z,6.19
2022-12-31T11:48:30.135Z,6.36
2022-12-31T11:50:30.442Z,6.39
2022-12-31T11:52:21.769Z,6.32
2022-12-31T11:54:28.724Z,6.29
2022-12-31T11:55:56.720Z,6.32
2022-12-31T11:57:30.236Z,6.30
2022-12-31T11:58:56.325Z,6.28
2022-12-31T12:00:21.053Z,6.25
2022-12-31T12:01:48.375Z,6.24
2022-12-31T12:03:12.289Z,6.24
2022-12-31T12:04:34.031Z,6.22
2022-12-31T12:05:57.797Z,6.24
2022-12-31T12:07:21.528Z,6.26
2022-12-31T12:08:44.598Z,6.29
2022-12-31T12:10:35.991Z,6.25
2022-12-31T12:12:05.325Z,6.28
2022-12-31T12:13:28.812Z,6.29
2022-12-31T12:14:54.140Z,6.28
2022-12-31T12:16:16.295Z,6.28
2022-12-31T12:17:39.354Z,6.33
2022-12-31T12:19:16.735Z,6.37
2022-12-31T12:20:45.261Z,6.43
2022-12-31T12:22:21.036Z,6.41
2022-12-31T12:23:54.614Z,6.41
2022-12-31T12:25:22.760Z,6.39
2022-12-31T12:26:45.619Z,6.43
2022-12-31T12:28:24.313Z,6.47
2022-12-31T12:29:47.442Z,6.50
2022-12-31T12:31:20.836Z,6.53
2022-12-31T12:32:58.947Z,6.54
2022-12-31T12:34:30.764Z,6.63
2022-12-31T12:35:52.670Z,6.65
2022-12-31T12:37:35.506Z,6.69
2022-12-31T12:39:06.070Z,6.73
2022-12-31T12:40:33.655Z,6.76
2022-12-31T12:42:15.910Z,6.79
2022-12-31T12:43:39.071Z,6.77
2022-12-31T12:45:17.825Z,6.77
2022-12-31T12:46:49.192Z,6.77
2022-12-31T12:48:37.084Z,6.72
2022-12-31T12:49:59.776Z,6.67
2022-12-31T12:51:21.223Z,6.66
2022-12-31T12:53:08.688Z,6.60
2022-12-31T12:54:42.427Z,6.58
2022-12-31T12:56:12.554Z,6.66
2022-12-31T12:58:19.056Z,6.77
2022-12-31T13:00:29.805Z,6.72
2022-12-31T13:02:08.542Z,6.71
2022-12-31T13:06:46.799Z,6.57
2022-12-31T13:08:20.358Z,6.48
2022-12-31T13:10:26.645Z,6.42
2022-12-31T13:12:05.420Z,6.35
2022-12-31T13:13:56.467Z,6.35
2022-12-31T13:15:42.383Z,6.32
2022-12-31T13:17:13.382Z,6.32
2022-12-31T13:18:44.173Z,6.29
2022-12-31T13:20:24.103Z,6.31
2022-12-31T13:21:53.146Z,6.29
2022-12-31T13:23:39.422Z,6.23
2022-12-31T13:25:39.821Z,6.22
2022-12-31T13:27:30.623Z,6.27
2022-12-31T13:28:54.553Z,6.28
2022-12-31T13:30:33.526Z,6.31
2022-12-31T13:31:57.819Z,6.20
2022-12-31T13:33:34.308Z,6.27
2022-12-31T13:35:17.858Z,6.29
2022-12-31T13:36:42.462Z,6.29
2022-12-31T13:38:12.349Z,6.27
2022-12-31T13:39:41.618Z,6.29
2022-12-31T13:41:19.183Z,6.25
2022-12-31T13:42:51.895Z,6.20
2022-12-31T13:44:35.768Z,6.16
2022-12-31T13:46:04.752Z,6.14
2022-12-31T13:47:40.840Z,6.17
2022-12-31T13:49:33.739Z,6.15
2022-12-31T13:51:05.993Z,6.12
2022-12-31T13:53:01.221Z,6.09
2022-12-31T13:54:31.560Z,6.05
2022-12-31T13:56:02.145Z,6.14
2022-12-31T13:57:49.431Z,6.06
2022-12-31T13:59:39.624Z,6.04
2022-12-31T14:01:29.408Z,6.00
2022-12-31T14:03:26.319Z,6.03
2022-12-31T14:04:53.196Z,6.14
2022-12-31T14:06:24.759Z,6.22
2022-12-31T14:08:00.482Z,6.13
2022-12-31T14:09:31.855Z,6.06
2022-12-31T14:11:21.715Z,6.06
2022-12-31T14:13:06.361Z,6.02
2022-12-31T14:14:46.202Z,6.00
2022-12-31T14:16:27.545Z,5.96
2022-12-31T14:18:04.251Z,5.97
2022-12-31T14:20:21.166Z,6.06
2022-12-31T14:22:23.295Z,6.23
2022-12-31T14:24:27.592Z,6.32
2022-12-31T14:25:56.113Z,6.29
2022-12-31T14:27:35.123Z,6.33
2022-12-31T14:29:09.695Z,6.27
2022-12-31T14:30:37.148Z,6.22
2022-12-31T14:32:16.905Z,6.20
2022-12-31T14:33:55.896Z,6.22
2022-12-31T14:35:38.742Z,6.19
2022-12-31T14:37:14.395Z,6.17
2022-12-31T14:39:10.120Z,6.16
2022-12-31T14:40:55.718Z,6.14
2022-12-31T14:42:38.871Z,6.12
2022-12-31T14:44:25.583Z,6.09
2022-12-31T14:45:47.073Z,6.04
2022-12-31T14:47:09.145Z,5.98
2022-12-31T14:48:49.447Z,5.99
2022-12-31T14:50:13.473Z,5.97
2022-12-31T14:51:37.344Z,5.87
2022-12-31T14:53:06.311Z,5.97
2022-12-31T14:54:35.329Z,5.87
2022-12-31T14:56:27.698Z,5.85
2022-12-31T14:59:38.711Z,5.84
2022-12-31T15:01:19.335Z,5.74
2022-12-31T15:02:51.396Z,5.65
2022-12-31T15:04:15.875Z,5.63
2022-12-31T15:05:38.496Z,5.57
2022-12-31T15:07:18.626Z,5.55
2022-12-31T15:09:34.742Z,5.48
2022-12-31T15:11:23.840Z,5.43
2022-12-31T15:13:19.113Z,5.38
2022-12-31T15:14:49.663Z,5.32
2022-12-31T15:16:49.567Z,5.33
2022-12-31T15:18:17.281Z,5.28
2022-12-31T15:19:44.716Z,5.24
2022-12-31T15:21:27.577Z,5.20
2022-12-31T15:22:51.104Z,5.16
2022-12-31T15:24:28.191Z,5.13
2022-12-31T15:25:59.177Z,5.08
2022-12-31T15:27:37.911Z,5.16
2022-12-31T15:29:06.106Z,5.13
2022-12-31T15:30:44.127Z,5.09
2022-12-31T15:32:08.127Z,5.07
2022-12-31T15:33:41.815Z,5.04
2022-12-31T15:35:25.936Z,5.01
2022-12-31T15:36:55.069Z,5.03
2022-12-31T15:38:18.849Z,4.98
2022-12-31T15:39:44.503Z,5.06
2022-12-31T15:41:20.401Z,5.00
2022-12-31T15:43:00.247Z,5.05
2022-12-31T15:44:28.534Z,5.18
2022-12-31T15:45:52.392Z,5.20
2022-12-31T15:47:24.719Z,5.17
2022-12-31T15:49:04.958Z,5.15
2022-12-31T15:50:29.371Z,5.11
2022-12-31T15:52:03.608Z,5.07
2022-12-31T15:53:41.690Z,5.08
2022-12-31T15:55:06.468Z,5.06
2022-12-31T15:56:40.921Z,5.06
2022-12-31T15:58:11.207Z,5.08
2022-12-31T15:59:34.013Z,5.09
2022-12-31T16:01:04.569Z,5.06
2022-12-31T16:02:28.089Z,5.04
2022-12-31T16:04:20.853Z,5.03
2022-12-31T16:05:42.696Z,5.00
2022-12-31T16:07:05.866Z,4.96
2022-12-31T16:08:31.779Z,4.94
2022-12-31T16:10:00.245Z,4.90
2022-12-31T16:11:23.483Z,4.86
2022-12-31T16:12:45.652Z,4.84
2022-12-31T16:14:07.708Z,4.79
2022-12-31T16:15:32.919Z,4.74
2022-12-31T16:16:58.178Z,4.73
2022-12-31T16:18:23.000Z,4.72
2022-12-31T16:19:47.190Z,4.71
2022-12-31T16:21:30.098Z,4.68
2022-12-31T16:22:59.093Z,4.67
2022-12-31T16:24:37.446Z,4.64
2022-12-31T16:26:10.104Z,4.64
2022-12-31T16:27:34.579Z,4.66
2022-12-31T16:29:00.230Z,4.65
2022-12-31T16:30:28.104Z,4.63
2022-12-31T16:31:53.251Z,4.62
2022-12-31T16:33:16.004Z,4.59
2022-12-31T16:34:38.641Z,4.58
2022-12-31T16:36:01.699Z,4.56
2022-12-31T16:37:24.204Z,4.54
2022-12-31T16:38:46.101Z,4.53
2022-12-31T16:40:17.514Z,4.51
2022-12-31T16:41:43.584Z,4.49
2022-12-31T16:43:20.402Z,4.46
2022-12-31T16:44:42.593Z,4.45
2022-12-31T16:46:28.609Z,4.42
2022-12-31T16:47:50.343Z,4.48
2022-12-31T16:49:20.769Z,4.49
2022-12-31T16:50:49.482Z,4.47
2022-12-31T16:52:32.236Z,4.45
2022-12-31T16:53:54.562Z,4.44
2022-12-31T16:55:21.869Z,4.42
2022-12-31T16:56:44.816Z,4.40
2022-12-31T16:58:28.273Z,4.40
2022-12-31T16:59:55.797Z,4.38
2022-12-31T17:01:25.695Z,4.35
2022-12-31T17:03:14.147Z,4.32
2022-12-31T17:04:37.760Z,4.30
2022-12-31T17:06:14.776Z,4.28
2022-12-31T17:07:42.371Z,4.27
2022-12-31T17:09:15.076Z,4.26
2022-12-31T17:10:37.361Z,4.28
2022-12-31T17:12:17.650Z,4.25
2022-12-31T17:13:39.673Z,4.24
2022-12-31T17:15:06.394Z,4.22
2022-12-31T17:16:28.630Z,4.22
2022-12-31T17:17:56.389Z,4.29
2022-12-31T17:19:30.116Z,4.33
2022-12-31T17:20:54.433Z,4.32
2022-12-31T17:22:34.250Z,4.31
2022-12-31T17:24:03.714Z,4.30
2022-12-31T17:25:28.783Z,4.31
2022-12-31T17:26:53.026Z,4.29
2022-12-31T17:28:22.963Z,4.29
2022-12-31T17:29:45.025Z,4.28
2022-12-31T17:31:26.513Z,4.27
2022-12-31T17:32:50.177Z,4.26
2022-12-31T17:34:14.737Z,4.23
2022-12-31T17:35:42.951Z,4.25
2022-12-31T17:37:10.463Z,4.25
2022-12-31T17:38:36.020Z,4.25
2022-12-31T17:41:46.456Z,4.20
2022-12-31T17:43:10.765Z,4.18
2022-12-31T17:44:36.042Z,4.15
2022-12-31T17:45:58.193Z,4.11
2022-12-31T17:47:20.084Z,4.07
2022-12-31T17:48:44.015Z,4.04
2022-12-31T17:50:09.989Z,4.00
2022-12-31T17:51:31.802Z,3.96
2022-12-31T17:53:02.943Z,3.93
2022-12-31T17:54:24.668Z,3.89
2022-12-31T17:55:52.114Z,3.83
2022-12-31T17:57:28.019Z,3.80
2022-12-31T17:58:52.701Z,3.75
2022-12-31T18:00:20.647Z,3.71
2022-12-31T18:01:42.647Z,3.67
2022-12-31T18:03:04.778Z,3.65
2022-12-31T18:04:27.197Z,3.62
2022-12-31T18:05:49.210Z,3.56
2022-12-31T18:07:11.465Z,3.52
2022-12-31T18:08:33.432Z,3.49
2022-12-31T18:09:55.143Z,3.47
2022-12-31T18:11:26.157Z,3.45
2022-12-31T18:12:49.257Z,3.43
2022-12-31T18:14:15.538Z,3.40
2022-12-31T18:15:37.436Z,3.38
2022-12-31T18:16:59.063Z,3.37
2022-12-31T18:18:25.943Z,3.34
2022-12-31T18:20:05.145Z,3.32
2022-12-31T18:21:30.179Z,3.29
2022-12-31T18:22:52.529Z,3.25
2022-12-31T18:24:24.265Z,3.23
2022-12-31T18:25:47.702Z,3.22
2022-12-31T18:27:19.945Z,3.19
2022-12-31T18:28:41.640Z,3.16
2022-12-31T18:30:05.785Z,3.13
2022-12-31T18:31:31.041Z,3.11
2022-12-31T18:32:53.786Z,3.11
2022-12-31T18:34:17.046Z,3.08
2022-12-31T18:36:07.662Z,3.09
2022-12-31T18:37:22.567Z,3.05
2022-12-31T18:38:45.020Z,3.07
2022-12-31T18:40:07.414Z,3.04
2022-12-31T18:41:37.831Z,3.02
2022-12-31T18:43:04.739Z,3.01
2022-12-31T18:44:27.321Z,3.00
2022-12-31T18:45:50.370Z,2.99
2022-12-31T18:47:18.276Z,2.97
2022-12-31T18:48:41.555Z,2.98
2022-12-31T18:50:03.153Z,2.97
2022-12-31T18:51:31.777Z,2.96
2022-12-31T18:52:54.032Z,2.96
2022-12-31T18:54:16.494Z,2.93
2022-12-31T18:55:49.792Z,2.93
2022-12-31T18:57:15.662Z,2.92
2022-12-31T18:58:37.530Z,2.91
2022-12-31T19:00:00.714Z,2.89
2022-12-31T19:01:30.064Z,2.88
2022-12-31T19:02:51.934Z,2.85
2022-12-31T19:04:27.045Z,2.84
2022-12-31T19:05:51.354Z,2.81
2022-12-31T19:07:13.523Z,2.81
2022-12-31T19:08:35.124Z,2.79
2022-12-31T19:09:58.636Z,2.78
2022-12-31T19:11:21.563Z,2.78
2022-12-31T19:12:44.471Z,2.75
2022-12-31T19:14:18.701Z,2.74
2022-12-31T19:15:46.328Z,2.71
2022-12-31T19:18:28.804Z,2.71
2022-12-31T19:19:50.684Z,2.72
2022-12-31T19:21:18.551Z,2.72
2022-12-31T19:22:40.321Z,2.71
2022-12-31T19:24:02.144Z,2.71
2022-12-31T19:25:26.786Z,2.72
2022-12-31T19:26:49.484Z,2.71
2022-12-31T19:28:19.728Z,2.72
2022-12-31T19:29:41.544Z,2.72
2022-12-31T19:31:03.471Z,2.72
2022-12-31T19:32:25.380Z,2.71
2022-12-31T19:33:47.309Z,2.71
2022-12-31T19:35:11.533Z,2.60
2022-12-31T19:36:36.189Z,2.57
2022-12-31T19:38:02.158Z,2.59
2022-12-31T19:39:24.018Z,2.58
2022-12-31T19:40:46.425Z,2.59
2022-12-31T19:42:15.049Z,2.59
2022-12-31T19:43:36.598Z,2.58
2022-12-31T19:44:58.542Z,2.58
2022-12-31T19:46:20.661Z,2.57
2022-12-31T19:47:42.859Z,2.56
2022-12-31T19:49:04.648Z,2.55
2022-12-31T19:50:28.474Z,2.54
2022-12-31T19:51:50.504Z,2.54
2022-12-31T19:53:20.940Z,2.54
2022-12-31T19:54:42.900Z,2.51
2022-12-31T19:56:05.624Z,2.49
2022-12-31T19:57:29.805Z,2.46
2022-12-31T19:58:52.137Z,2.35
2022-12-31T20:00:16.615Z,2.38
2022-12-31T20:01:38.960Z,2.38
2022-12-31T20:03:01.184Z,2.38
2022-12-31T20:04:23.296Z,2.36
2022-12-31T20:05:46.481Z,2.38